sensor_id;sensor_type;location;lat;lon;timestamp;pressure;altitude;pressure_sealevel;temperature;humidity
35519;BME280;21627;48.216;16.482;2023-04-26T00:02:20;99526.25;;;8.13;89.66
35519;BME280;21627;48.216;16.482;2023-04-26T00:04:54;99513.34;;;8.07;88.64
35519;BME280;21627;48.216;16.482;2023-04-26T00:07:25;99527.13;;;8.12;90.52
35519;BME280;21627;48.216;16.482;2023-04-26T00:09:54;99532.31;;;8.19;87.69
35519;BME280;21627;48.216;16.482;2023-04-26T00:12:21;99532.31;;;8.21;87.62
35519;BME280;21627;48.216;16.482;2023-04-26T00:14:49;99528.84;;;8.13;88.65
35519;BME280;21627;48.216;16.482;2023-04-26T00:17:16;99540.84;;;8.14;89.57
35519;BME280;21627;48.216;16.482;2023-04-26T00:19:43;99541.75;;;8.19;89.67
35519;BME280;21627;48.216;16.482;2023-04-26T00:22:11;99540.03;;;8.19;87.32
35519;BME280;21627;48.216;16.482;2023-04-26T00:24:38;99540.88;;;8.17;86.75
35519;BME280;21627;48.216;16.482;2023-04-26T00:27:06;99552.84;;;8.13;88.57
35519;BME280;21627;48.216;16.482;2023-04-26T00:29:36;99540.81;;;8.05;89.81
35519;BME280;21627;48.216;16.482;2023-04-26T00:32:04;99551.91;;;8.00;88.45
35519;BME280;21627;48.216;16.482;2023-04-26T00:34:36;99542.44;;;7.92;89.87
35519;BME280;21627;48.216;16.482;2023-04-26T00:37:04;99548.41;;;7.91;89.86
35519;BME280;21627;48.216;16.482;2023-04-26T00:39:32;99547.56;;;7.89;90.26
35519;BME280;21627;48.216;16.482;2023-04-26T00:41:59;99542.34;;;7.79;90.65
35519;BME280;21627;48.216;16.482;2023-04-26T00:44:26;99550.88;;;7.78;89.63
35519;BME280;21627;48.216;16.482;2023-04-26T00:46:54;99549.97;;;7.70;90.32
35519;BME280;21627;48.216;16.482;2023-04-26T00:49:23;99556.78;;;7.65;90.27
35519;BME280;21627;48.216;16.482;2023-04-26T00:51:53;99552.50;;;7.66;89.86
35519;BME280;21627;48.216;16.482;2023-04-26T00:54:20;99546.44;;;7.57;90.61
35519;BME280;21627;48.216;16.482;2023-04-26T00:56:47;99538.69;;;7.54;91.10
35519;BME280;21627;48.216;16.482;2023-04-26T00:59:20;99541.38;;;7.67;89.65
35519;BME280;21627;48.216;16.482;2023-04-26T01:01:48;99543.91;;;7.62;90.24
35519;BME280;21627;48.216;16.482;2023-04-26T01:04:15;99545.56;;;7.55;90.14
35519;BME280;21627;48.216;16.482;2023-04-26T01:06:44;99552.38;;;7.50;91.87
35519;BME280;21627;48.216;16.482;2023-04-26T01:09:11;99551.47;;;7.44;91.78
35519;BME280;21627;48.216;16.482;2023-04-26T01:11:42;99557.44;;;7.43;91.27
35519;BME280;21627;48.216;16.482;2023-04-26T01:14:10;99559.13;;;7.41;91.74
35519;BME280;21627;48.216;16.482;2023-04-26T01:16:37;99547.94;;;7.34;92.33
35519;BME280;21627;48.216;16.482;2023-04-26T01:19:10;99545.28;;;7.28;90.69
35519;BME280;21627;48.216;16.482;2023-04-26T01:21:39;99554.78;;;7.32;91.96
35519;BME280;21627;48.216;16.482;2023-04-26T01:24:12;99556.50;;;7.34;91.30
35519;BME280;21627;48.216;16.482;2023-04-26T01:26:40;99561.63;;;7.28;91.42
35519;BME280;21627;48.216;16.482;2023-04-26T01:29:17;99564.09;;;7.21;92.09
35519;BME280;21627;48.216;16.482;2023-04-26T01:31:45;99564.94;;;7.20;92.25
35519;BME280;21627;48.216;16.482;2023-04-26T01:34:13;99562.38;;;7.21;90.57
35519;BME280;21627;48.216;16.482;2023-04-26T01:36:40;99573.59;;;7.28;90.16
35519;BME280;21627;48.216;16.482;2023-04-26T01:39:08;99563.22;;;7.20;89.21
35519;BME280;21627;48.216;16.482;2023-04-26T01:41:36;99577.91;;;7.32;86.47
35519;BME280;21627;48.216;16.482;2023-04-26T01:44:03;99578.84;;;7.40;85.60
35519;BME280;21627;48.216;16.482;2023-04-26T01:46:30;99584.88;;;7.42;85.00
35519;BME280;21627;48.216;16.482;2023-04-26T01:48:58;99580.53;;;7.36;85.65
35519;BME280;21627;48.216;16.482;2023-04-26T01:51:25;99584.84;;;7.41;85.80
35519;BME280;21627;48.216;16.482;2023-04-26T01:53:53;99576.25;;;7.37;84.97
35519;BME280;21627;48.216;16.482;2023-04-26T01:56:23;99587.38;;;7.34;85.37
35519;BME280;21627;48.216;16.482;2023-04-26T01:58:50;99592.56;;;7.39;86.83
35519;BME280;21627;48.216;16.482;2023-04-26T02:01:17;99595.03;;;7.30;85.88
35519;BME280;21627;48.216;16.482;2023-04-26T02:03:45;99597.63;;;7.30;84.42
35519;BME280;21627;48.216;16.482;2023-04-26T02:06:12;99601.84;;;7.25;84.11
35519;BME280;21627;48.216;16.482;2023-04-26T02:08:39;99583.75;;;7.14;85.06
35519;BME280;21627;48.216;16.482;2023-04-26T02:11:06;99597.53;;;7.22;82.92
35519;BME280;21627;48.216;16.482;2023-04-26T02:13:33;99584.53;;;7.08;84.67
35519;BME280;21627;48.216;16.482;2023-04-26T02:16:00;99581.00;;;7.00;85.38
35519;BME280;21627;48.216;16.482;2023-04-26T02:18:28;99587.84;;;6.98;83.52
35519;BME280;21627;48.216;16.482;2023-04-26T02:20:55;99595.47;;;6.90;81.94
35519;BME280;21627;48.216;16.482;2023-04-26T02:23:22;99591.09;;;6.85;83.46
35519;BME280;21627;48.216;16.482;2023-04-26T02:25:50;99591.94;;;6.85;82.85
35519;BME280;21627;48.216;16.482;2023-04-26T02:28:17;99592.81;;;6.84;83.64
35519;BME280;21627;48.216;16.482;2023-04-26T02:30:44;99600.44;;;6.80;84.23
35519;BME280;21627;48.216;16.482;2023-04-26T02:33:11;99597.81;;;6.75;85.11
35519;BME280;21627;48.216;16.482;2023-04-26T02:35:38;99592.59;;;6.67;83.99
35519;BME280;21627;48.216;16.482;2023-04-26T02:38:06;99584.84;;;6.63;86.25
35519;BME280;21627;48.216;16.482;2023-04-26T02:40:33;99586.50;;;6.58;86.30
35519;BME280;21627;48.216;16.482;2023-04-26T02:43:01;99589.88;;;6.55;87.45
35519;BME280;21627;48.216;16.482;2023-04-26T02:45:28;99595.88;;;6.56;88.52
35519;BME280;21627;48.216;16.482;2023-04-26T02:47:55;99593.28;;;6.54;87.89
35519;BME280;21627;48.216;16.482;2023-04-26T02:50:22;99584.56;;;6.44;89.66
35519;BME280;21627;48.216;16.482;2023-04-26T02:52:49;99593.16;;;6.46;90.50
35519;BME280;21627;48.216;16.482;2023-04-26T02:55:16;99590.53;;;6.40;89.79
35519;BME280;21627;48.216;16.482;2023-04-26T02:57:44;99595.66;;;6.40;91.18
35519;BME280;21627;48.216;16.482;2023-04-26T03:00:11;99587.03;;;6.35;90.70
35519;BME280;21627;48.216;16.482;2023-04-26T03:02:40;99608.41;;;6.34;91.72
35519;BME280;21627;48.216;16.482;2023-04-26T03:05:08;99601.47;;;6.28;91.97
35519;BME280;21627;48.216;16.482;2023-04-26T03:07:36;99598.94;;;6.30;91.21
35519;BME280;21627;48.216;16.482;2023-04-26T03:10:04;99605.06;;;6.41;90.08
35519;BME280;21627;48.216;16.482;2023-04-26T03:12:31;99601.53;;;6.35;89.89
35519;BME280;21627;48.216;16.482;2023-04-26T03:14:59;99603.16;;;6.25;89.63
35519;BME280;21627;48.216;16.482;2023-04-26T03:17:26;99612.53;;;6.23;90.27
35519;BME280;21627;48.216;16.482;2023-04-26T03:19:53;99608.25;;;6.23;88.18
35519;BME280;21627;48.216;16.482;2023-04-26T03:22:20;99613.34;;;6.22;88.69
35519;BME280;21627;48.216;16.482;2023-04-26T03:24:48;99615.13;;;6.26;87.43
35519;BME280;21627;48.216;16.482;2023-04-26T03:27:15;99613.22;;;6.13;89.08
35519;BME280;21627;48.216;16.482;2023-04-26T03:29:42;99617.47;;;6.12;90.13
35519;BME280;21627;48.216;16.482;2023-04-26T03:32:10;99608.78;;;6.02;89.19
35519;BME280;21627;48.216;16.482;2023-04-26T03:34:37;99617.34;;;6.03;89.35
35519;BME280;21627;48.216;16.482;2023-04-26T03:37:04;99619.84;;;5.98;90.23
35519;BME280;21627;48.216;16.482;2023-04-26T03:39:31;99622.41;;;5.98;90.00
35519;BME280;21627;48.216;16.482;2023-04-26T03:41:58;99625.81;;;5.99;88.99
35519;BME280;21627;48.216;16.482;2023-04-26T03:44:25;99618.81;;;5.90;88.01
35519;BME280;21627;48.216;16.482;2023-04-26T03:46:54;99617.06;;;5.89;88.10
35519;BME280;21627;48.216;16.482;2023-04-26T03:49:21;99639.47;;;5.95;88.10
35519;BME280;21627;48.216;16.482;2023-04-26T03:51:49;99635.84;;;5.85;87.54
35519;BME280;21627;48.216;16.482;2023-04-26T03:54:16;99635.84;;;5.85;87.87
35519;BME280;21627;48.216;16.482;2023-04-26T03:56:43;99645.16;;;5.80;89.63
35519;BME280;21627;48.216;16.482;2023-04-26T03:59:11;99641.56;;;5.72;90.15
35519;BME280;21627;48.216;16.482;2023-04-26T04:01:38;99639.91;;;5.72;90.20
35519;BME280;21627;48.216;16.482;2023-04-26T04:04:05;99637.31;;;5.72;90.13
35519;BME280;21627;48.216;16.482;2023-04-26T04:06:32;99633.13;;;5.77;88.29
35519;BME280;21627;48.216;16.482;2023-04-26T04:08:59;99639.09;;;5.76;87.38
35519;BME280;21627;48.216;16.482;2023-04-26T04:11:27;99644.13;;;5.72;88.12
35519;BME280;21627;48.216;16.482;2023-04-26T04:13:54;99632.06;;;5.64;88.07
35519;BME280;21627;48.216;16.482;2023-04-26T04:16:21;99632.25;;;5.75;87.01
35519;BME280;21627;48.216;16.482;2023-04-26T04:18:48;99636.44;;;5.72;87.88
35519;BME280;21627;48.216;16.482;2023-04-26T04:21:16;99633.81;;;5.67;87.99
35519;BME280;21627;48.216;16.482;2023-04-26T04:23:43;99650.06;;;5.68;88.14
35519;BME280;21627;48.216;16.482;2023-04-26T04:26:10;99644.81;;;5.61;89.47
35519;BME280;21627;48.216;16.482;2023-04-26T04:28:39;99650.03;;;5.64;89.72
35519;BME280;21627;48.216;16.482;2023-04-26T04:31:07;99663.75;;;5.68;89.26
35519;BME280;21627;48.216;16.482;2023-04-26T04:33:37;99669.72;;;5.67;89.14
35519;BME280;21627;48.216;16.482;2023-04-26T04:36:05;99679.94;;;5.66;90.28
35519;BME280;21627;48.216;16.482;2023-04-26T04:38:33;99670.53;;;5.64;90.15
35519;BME280;21627;48.216;16.482;2023-04-26T04:41:00;99671.41;;;5.67;89.63
35519;BME280;21627;48.216;16.482;2023-04-26T04:43:27;99670.69;;;5.72;89.16
35519;BME280;21627;48.216;16.482;2023-04-26T04:45:55;99677.63;;;5.78;88.08
35519;BME280;21627;48.216;16.482;2023-04-26T04:48:22;99668.97;;;5.74;88.87
35519;BME280;21627;48.216;16.482;2023-04-26T04:50:49;99681.94;;;5.82;88.18
35519;BME280;21627;48.216;16.482;2023-04-26T04:53:16;99681.97;;;5.83;87.19
35519;BME280;21627;48.216;16.482;2023-04-26T04:55:44;99675.19;;;5.85;87.08
35519;BME280;21627;48.216;16.482;2023-04-26T04:58:11;99689.06;;;5.95;87.50
35519;BME280;21627;48.216;16.482;2023-04-26T05:00:39;99678.25;;;6.15;88.63
35519;BME280;21627;48.216;16.482;2023-04-26T05:03:06;99686.97;;;6.23;87.09
35519;BME280;21627;48.216;16.482;2023-04-26T05:05:36;99683.50;;;6.21;85.99
35519;BME280;21627;48.216;16.482;2023-04-26T05:08:03;99684.28;;;6.15;86.45
35519;BME280;21627;48.216;16.482;2023-04-26T05:10:30;99695.53;;;6.23;87.04
35519;BME280;21627;48.216;16.482;2023-04-26T05:12:57;99688.72;;;6.25;86.57
35519;BME280;21627;48.216;16.482;2023-04-26T05:15:25;99697.44;;;6.35;87.19
35519;BME280;21627;48.216;16.482;2023-04-26T05:17:52;99693.22;;;6.39;83.31
35519;BME280;21627;48.216;16.482;2023-04-26T05:20:21;99692.34;;;6.40;84.94
35519;BME280;21627;48.216;16.482;2023-04-26T05:22:48;99705.47;;;6.55;86.00
35519;BME280;21627;48.216;16.482;2023-04-26T05:25:16;99702.88;;;6.54;86.19
35519;BME280;21627;48.216;16.482;2023-04-26T05:27:44;99705.50;;;6.58;86.60
35519;BME280;21627;48.216;16.482;2023-04-26T05:30:12;99704.69;;;6.61;86.37
35519;BME280;21627;48.216;16.482;2023-04-26T05:32:39;99714.22;;;6.68;87.07
35519;BME280;21627;48.216;16.482;2023-04-26T05:35:07;99711.81;;;6.80;84.38
35519;BME280;21627;48.216;16.482;2023-04-26T05:37:34;99717.13;;;6.91;83.16
35519;BME280;21627;48.216;16.482;2023-04-26T05:40:02;99715.47;;;6.96;83.36
35519;BME280;21627;48.216;16.482;2023-04-26T05:42:30;99716.44;;;7.04;79.98
35519;BME280;21627;48.216;16.482;2023-04-26T05:44:58;99724.25;;;7.12;80.58
35519;BME280;21627;48.216;16.482;2023-04-26T05:47:25;99715.63;;;7.07;79.78
35519;BME280;21627;48.216;16.482;2023-04-26T05:49:52;99710.59;;;7.16;79.83
35519;BME280;21627;48.216;16.482;2023-04-26T05:52:19;99712.31;;;7.17;81.95
35519;BME280;21627;48.216;16.482;2023-04-26T05:54:47;99716.75;;;7.27;81.87
35519;BME280;21627;48.216;16.482;2023-04-26T05:57:14;99723.69;;;7.34;79.88
35519;BME280;21627;48.216;16.482;2023-04-26T05:59:41;99734.13;;;7.47;80.85
35519;BME280;21627;48.216;16.482;2023-04-26T06:02:08;99745.47;;;7.61;78.34
35519;BME280;21627;48.216;16.482;2023-04-26T06:04:36;99744.59;;;7.62;77.72
35519;BME280;21627;48.216;16.482;2023-04-26T06:07:03;99748.97;;;7.66;76.08
35519;BME280;21627;48.216;16.482;2023-04-26T06:09:31;99750.81;;;7.79;75.58
35519;BME280;21627;48.216;16.482;2023-04-26T06:11:58;99756.78;;;7.78;76.91
35519;BME280;21627;48.216;16.482;2023-04-26T06:14:25;99755.19;;;7.88;75.70
35519;BME280;21627;48.216;16.482;2023-04-26T06:16:56;99757.81;;;7.91;77.74
35519;BME280;21627;48.216;16.482;2023-04-26T06:19:24;99750.97;;;7.95;76.29
35519;BME280;21627;48.216;16.482;2023-04-26T06:21:51;99761.41;;;8.07;75.59
35519;BME280;21627;48.216;16.482;2023-04-26T06:24:22;99757.13;;;8.11;76.00
35519;BME280;21627;48.216;16.482;2023-04-26T06:26:52;99760.81;;;8.34;75.07
35519;BME280;21627;48.216;16.482;2023-04-26T06:29:20;99764.28;;;8.38;72.88
35519;BME280;21627;48.216;16.482;2023-04-26T06:31:47;99767.88;;;8.54;73.63
35519;BME280;21627;48.216;16.482;2023-04-26T06:34:14;99777.34;;;8.55;72.22
35519;BME280;21627;48.216;16.482;2023-04-26T06:36:42;99777.47;;;8.70;70.34
35519;BME280;21627;48.216;16.482;2023-04-26T06:39:09;99783.47;;;8.68;70.26
35519;BME280;21627;48.216;16.482;2023-04-26T06:41:37;99779.13;;;8.63;70.00
35519;BME280;21627;48.216;16.482;2023-04-26T06:44:04;99780.09;;;8.75;72.09
35519;BME280;21627;48.216;16.482;2023-04-26T06:46:31;99780.19;;;8.90;70.17
35519;BME280;21627;48.216;16.482;2023-04-26T06:49:00;99775.13;;;9.05;68.96
35519;BME280;21627;48.216;16.482;2023-04-26T06:51:27;99786.34;;;9.10;68.46
35519;BME280;21627;48.216;16.482;2023-04-26T06:53:55;99776.13;;;9.26;67.32
35519;BME280;21627;48.216;16.482;2023-04-26T06:56:25;99774.50;;;9.43;67.51
35519;BME280;21627;48.216;16.482;2023-04-26T06:59:18;99784.00;;;9.57;62.28
35519;BME280;21627;48.216;16.482;2023-04-26T07:01:45;99783.19;;;9.58;63.11
35519;BME280;21627;48.216;16.482;2023-04-26T07:04:12;99790.16;;;9.92;64.77
35519;BME280;21627;48.216;16.482;2023-04-26T07:06:41;99779.00;;;9.90;64.60
35519;BME280;21627;48.216;16.482;2023-04-26T07:09:08;99780.75;;;10.14;63.88
35519;BME280;21627;48.216;16.482;2023-04-26T07:11:38;99780.84;;;10.28;63.96
35519;BME280;21627;48.216;16.482;2023-04-26T07:14:05;99781.66;;;10.24;61.21
35519;BME280;21627;48.216;16.482;2023-04-26T07:16:32;99781.69;;;10.43;62.83
35519;BME280;21627;48.216;16.482;2023-04-26T07:18:59;99786.88;;;10.50;59.99
35519;BME280;21627;48.216;16.482;2023-04-26T07:21:26;99780.84;;;10.42;57.48
35519;BME280;21627;48.216;16.482;2023-04-26T07:23:57;99780.88;;;10.56;58.12
35519;BME280;21627;48.216;16.482;2023-04-26T07:26:25;99785.16;;;10.65;56.97
35519;BME280;21627;48.216;16.482;2023-04-26T07:28:55;99780.84;;;10.73;55.59
35519;BME280;21627;48.216;16.482;2023-04-26T07:31:22;99780.84;;;10.82;55.79
35519;BME280;21627;48.216;16.482;2023-04-26T07:33:50;99790.31;;;11.09;54.27
35519;BME280;21627;48.216;16.482;2023-04-26T07:36:17;99795.44;;;11.23;53.14
35519;BME280;21627;48.216;16.482;2023-04-26T07:38:44;99790.25;;;11.35;53.23
35519;BME280;21627;48.216;16.482;2023-04-26T07:41:11;99781.59;;;11.44;55.23
35519;BME280;21627;48.216;16.482;2023-04-26T07:43:39;99791.91;;;11.59;54.08
35519;BME280;21627;48.216;16.482;2023-04-26T07:46:06;99782.38;;;11.70;52.12
35519;BME280;21627;48.216;16.482;2023-04-26T07:48:33;99778.00;;;11.89;52.27
35519;BME280;21627;48.216;16.482;2023-04-26T07:51:11;99782.09;;;12.27;52.59
35519;BME280;21627;48.216;16.482;2023-04-26T07:53:39;99788.03;;;12.45;51.43
35519;BME280;21627;48.216;16.482;2023-04-26T07:56:08;99792.38;;;12.43;48.02
35519;BME280;21627;48.216;16.482;2023-04-26T07:58:36;99796.88;;;12.11;45.85
35519;BME280;21627;48.216;16.482;2023-04-26T08:01:05;99791.91;;;11.61;48.53
35519;BME280;21627;48.216;16.482;2023-04-26T08:03:35;99789.34;;;11.53;49.47
35519;BME280;21627;48.216;16.482;2023-04-26T08:06:03;99789.22;;;11.90;50.50
35519;BME280;21627;48.216;16.482;2023-04-26T08:08:30;99798.66;;;11.99;49.95
35519;BME280;21627;48.216;16.482;2023-04-26T08:10:59;99797.84;;;11.81;49.50
35519;BME280;21627;48.216;16.482;2023-04-26T08:13:26;99798.84;;;11.48;49.08
35519;BME280;21627;48.216;16.482;2023-04-26T08:15:55;99798.09;;;11.04;48.02
35519;BME280;21627;48.216;16.482;2023-04-26T08:18:22;99797.22;;;10.93;49.99
35519;BME280;21627;48.216;16.482;2023-04-26T08:20:49;99813.59;;;10.78;50.18
35519;BME280;21627;48.216;16.482;2023-04-26T08:23:17;99803.25;;;10.65;50.72
35519;BME280;21627;48.216;16.482;2023-04-26T08:25:45;99807.56;;;10.47;50.29
35519;BME280;21627;48.216;16.482;2023-04-26T08:28:14;99791.19;;;10.65;51.02
35519;BME280;21627;48.216;16.482;2023-04-26T08:30:41;99804.09;;;11.13;47.82
35519;BME280;21627;48.216;16.482;2023-04-26T08:33:09;99786.78;;;11.45;50.95
35519;BME280;21627;48.216;16.482;2023-04-26T08:35:36;99803.16;;;11.52;48.35
35519;BME280;21627;48.216;16.482;2023-04-26T08:38:03;99795.38;;;11.57;48.92
35519;BME280;21627;48.216;16.482;2023-04-26T08:40:31;99791.03;;;11.63;49.80
35519;BME280;21627;48.216;16.482;2023-04-26T08:42:58;99808.25;;;11.74;50.71
35519;BME280;21627;48.216;16.482;2023-04-26T08:45:25;99794.44;;;11.72;48.39
35519;BME280;21627;48.216;16.482;2023-04-26T08:48:02;99797.06;;;11.67;47.15
35519;BME280;21627;48.216;16.482;2023-04-26T08:50:32;99804.81;;;11.64;48.37
35519;BME280;21627;48.216;16.482;2023-04-26T08:53:00;99803.09;;;11.70;47.91
35519;BME280;21627;48.216;16.482;2023-04-26T08:55:28;99807.47;;;11.59;47.71
35519;BME280;21627;48.216;16.482;2023-04-26T08:57:55;99806.56;;;11.59;49.47
35519;BME280;21627;48.216;16.482;2023-04-26T09:00:23;99814.34;;;11.56;48.73
35519;BME280;21627;48.216;16.482;2023-04-26T09:02:52;99804.91;;;11.36;50.43
35519;BME280;21627;48.216;16.482;2023-04-26T09:05:22;99816.09;;;11.51;51.15
35519;BME280;21627;48.216;16.482;2023-04-26T09:07:56;99814.41;;;11.40;50.26
35519;BME280;21627;48.216;16.482;2023-04-26T09:10:23;99811.75;;;11.62;49.48
35519;BME280;21627;48.216;16.482;2023-04-26T09:12:54;99805.50;;;12.20;51.80
35519;BME280;21627;48.216;16.482;2023-04-26T09:15:24;99803.72;;;12.28;45.42
35519;BME280;21627;48.216;16.482;2023-04-26T09:17:52;99803.44;;;12.65;48.33
35519;BME280;21627;48.216;16.482;2023-04-26T09:20:29;99810.13;;;12.93;46.93
35519;BME280;21627;48.216;16.482;2023-04-26T09:23:06;99801.63;;;12.77;48.01
35519;BME280;21627;48.216;16.482;2023-04-26T09:25:35;99806.06;;;12.62;45.74
35519;BME280;21627;48.216;16.482;2023-04-26T09:28:04;99807.25;;;12.08;46.28
35519;BME280;21627;48.216;16.482;2023-04-26T09:30:44;99807.34;;;11.81;47.69
35519;BME280;21627;48.216;16.482;2023-04-26T09:33:11;99788.47;;;11.56;50.38
35519;BME280;21627;48.216;16.482;2023-04-26T09:35:41;99811.81;;;11.46;48.50
35519;BME280;21627;48.216;16.482;2023-04-26T09:38:15;99801.47;;;11.34;48.54
35519;BME280;21627;48.216;16.482;2023-04-26T09:40:47;99802.28;;;11.50;49.71
35519;BME280;21627;48.216;16.482;2023-04-26T09:43:19;99792.75;;;11.61;48.71
35519;BME280;21627;48.216;16.482;2023-04-26T09:45:55;99797.84;;;11.83;49.16
35519;BME280;21627;48.216;16.482;2023-04-26T09:50:56;99787.50;;;11.90;49.06
35519;BME280;21627;48.216;16.482;2023-04-26T09:53:55;99795.22;;;11.97;50.02
35519;BME280;21627;48.216;16.482;2023-04-26T09:56:23;99800.44;;;11.95;49.39
35519;BME280;21627;48.216;16.482;2023-04-26T09:58:58;99796.97;;;11.98;49.09
35519;BME280;21627;48.216;16.482;2023-04-26T10:01:27;99788.25;;;12.06;47.95
35519;BME280;21627;48.216;16.482;2023-04-26T10:03:56;99783.91;;;12.15;48.31
35519;BME280;21627;48.216;16.482;2023-04-26T10:06:27;99788.13;;;12.29;45.70
35519;BME280;21627;48.216;16.482;2023-04-26T10:08:55;99788.78;;;12.59;47.87
35519;BME280;21627;48.216;16.482;2023-04-26T10:11:22;99785.97;;;12.87;47.97
35519;BME280;21627;48.216;16.482;2023-04-26T10:13:50;99790.28;;;12.86;46.82
35519;BME280;21627;48.216;16.482;2023-04-26T10:16:19;99799.25;;;12.47;46.93
35519;BME280;21627;48.216;16.482;2023-04-26T10:18:47;99796.75;;;12.31;48.56
35519;BME280;21627;48.216;16.482;2023-04-26T10:21:30;99788.25;;;12.06;49.37
35519;BME280;21627;48.216;16.482;2023-04-26T10:23:59;99797.06;;;11.70;50.22
35519;BME280;21627;48.216;16.482;2023-04-26T10:26:50;99804.81;;;11.70;51.34
35519;BME280;21627;48.216;16.482;2023-04-26T10:29:20;99800.56;;;11.41;50.86
35519;BME280;21627;48.216;16.482;2023-04-26T10:34:34;99788.19;;;12.25;49.22
35519;BME280;21627;48.216;16.482;2023-04-26T10:37:10;99795.38;;;12.97;49.37
35519;BME280;21627;48.216;16.482;2023-04-26T10:39:39;99789.06;;;13.23;47.87
35519;BME280;21627;48.216;16.482;2023-04-26T10:42:27;99786.66;;;13.04;45.31
35519;BME280;21627;48.216;16.482;2023-04-26T10:45:01;99785.84;;;12.99;47.01
35519;BME280;21627;48.216;16.482;2023-04-26T10:47:44;99786.63;;;13.10;48.97
35519;BME280;21627;48.216;16.482;2023-04-26T10:50:12;99784.88;;;13.11;48.18
35519;BME280;21627;48.216;16.482;2023-04-26T10:53:18;99775.94;;;13.41;45.44
35519;BME280;21627;48.216;16.482;2023-04-26T10:55:45;99757.78;;;14.06;48.12
35519;BME280;21627;48.216;16.482;2023-04-26T10:58:32;99755.22;;;14.03;43.12
35519;BME280;21627;48.216;16.482;2023-04-26T11:06:24;99778.97;;;12.98;46.04
35519;BME280;21627;48.216;16.482;2023-04-26T11:08:53;99777.28;;;12.91;48.36
35519;BME280;21627;48.216;16.482;2023-04-26T11:11:25;99773.94;;;12.76;48.73
35519;BME280;21627;48.216;16.482;2023-04-26T11:13:53;99774.91;;;12.66;47.95
35519;BME280;21627;48.216;16.482;2023-04-26T11:16:20;99768.22;;;12.38;49.17
35519;BME280;21627;48.216;16.482;2023-04-26T11:18:47;99762.94;;;12.48;48.31
35519;BME280;21627;48.216;16.482;2023-04-26T11:21:14;99766.22;;;12.70;47.64
35519;BME280;21627;48.216;16.482;2023-04-26T11:23:54;99755.69;;;12.89;47.02
35519;BME280;21627;48.216;16.482;2023-04-26T11:26:31;99758.94;;;13.08;48.20
35519;BME280;21627;48.216;16.482;2023-04-26T11:29:00;99756.97;;;13.36;46.54
35519;BME280;21627;48.216;16.482;2023-04-26T11:31:29;99754.91;;;13.62;46.27
35519;BME280;21627;48.216;16.482;2023-04-26T11:34:14;99760.09;;;13.64;46.55
35519;BME280;21627;48.216;16.482;2023-04-26T11:36:43;99750.06;;;14.00;46.88
35519;BME280;21627;48.216;16.482;2023-04-26T11:39:10;99753.34;;;14.13;46.35
35519;BME280;21627;48.216;16.482;2023-04-26T11:41:40;99753.34;;;14.13;45.97
35519;BME280;21627;48.216;16.482;2023-04-26T11:44:09;99739.50;;;14.12;46.53
35519;BME280;21627;48.216;16.482;2023-04-26T11:46:36;99739.78;;;13.94;46.09
35519;BME280;21627;48.216;16.482;2023-04-26T11:49:06;99752.34;;;13.61;46.20
35519;BME280;21627;48.216;16.482;2023-04-26T11:51:34;99741.91;;;13.64;47.62
35519;BME280;21627;48.216;16.482;2023-04-26T11:54:01;99751.63;;;13.45;45.65
35519;BME280;21627;48.216;16.482;2023-04-26T11:56:29;99759.56;;;13.33;47.52
35519;BME280;21627;48.216;16.482;2023-04-26T11:58:56;99753.44;;;13.40;47.68
35519;BME280;21627;48.216;16.482;2023-04-26T12:01:27;99754.63;;;13.84;46.32
35519;BME280;21627;48.216;16.482;2023-04-26T12:03:57;99745.19;;;13.75;46.67
35519;BME280;21627;48.216;16.482;2023-04-26T12:06:41;99751.28;;;13.74;46.64
35519;BME280;21627;48.216;16.482;2023-04-26T12:09:09;99733.81;;;14.43;45.56
35519;BME280;21627;48.216;16.482;2023-04-26T12:11:39;99750.13;;;14.56;45.53
35519;BME280;21627;48.216;16.482;2023-04-26T12:14:07;99744.47;;;14.29;44.80
35519;BME280;21627;48.216;16.482;2023-04-26T12:16:36;99753.69;;;13.91;45.45
35519;BME280;21627;48.216;16.482;2023-04-26T12:19:04;99750.31;;;13.83;46.24
35519;BME280;21627;48.216;16.482;2023-04-26T12:21:42;99748.81;;;13.65;45.29
35519;BME280;21627;48.216;16.482;2023-04-26T12:24:26;99748.22;;;14.08;45.98
35519;BME280;21627;48.216;16.482;2023-04-26T12:26:56;99738.66;;;14.12;47.41
35519;BME280;21627;48.216;16.482;2023-04-26T12:29:26;99747.19;;;14.20;45.94
35519;BME280;21627;48.216;16.482;2023-04-26T12:31:55;99740.41;;;14.10;44.53
35519;BME280;21627;48.216;16.482;2023-04-26T12:34:22;99748.38;;;13.96;42.48
35519;BME280;21627;48.216;16.482;2023-04-26T12:36:50;99737.50;;;13.68;44.69
35519;BME280;21627;48.216;16.482;2023-04-26T12:39:17;99741.94;;;13.61;44.92
35519;BME280;21627;48.216;16.482;2023-04-26T12:41:44;99750.81;;;13.41;43.53
35519;BME280;21627;48.216;16.482;2023-04-26T12:44:15;99756.16;;;13.28;44.73
35519;BME280;21627;48.216;16.482;2023-04-26T12:46:42;99745.53;;;13.48;46.04
35519;BME280;21627;48.216;16.482;2023-04-26T12:49:09;99745.44;;;13.57;44.98
35519;BME280;21627;48.216;16.482;2023-04-26T12:51:37;99741.53;;;13.90;44.07
35519;BME280;21627;48.216;16.482;2023-04-26T12:54:04;99748.03;;;14.76;44.19
35519;BME280;21627;48.216;16.482;2023-04-26T12:56:33;99740.34;;;15.20;43.73
35519;BME280;21627;48.216;16.482;2023-04-26T12:59:01;99742.47;;;15.86;41.60
35519;BME280;21627;48.216;16.482;2023-04-26T13:01:28;99739.44;;;16.42;40.95
35519;BME280;21627;48.216;16.482;2023-04-26T13:03:55;99740.38;;;16.75;45.72
35519;BME280;21627;48.216;16.482;2023-04-26T13:06:23;99742.19;;;16.73;43.81
35519;BME280;21627;48.216;16.482;2023-04-26T13:08:50;99746.56;;;16.71;41.59
35519;BME280;21627;48.216;16.482;2023-04-26T13:11:17;99732.72;;;17.03;40.92
35519;BME280;21627;48.216;16.482;2023-04-26T13:13:45;99740.44;;;17.39;41.11
35519;BME280;21627;48.216;16.482;2023-04-26T13:16:12;99738.78;;;17.66;38.95